Terminal Aerodrome Forecast
Issued by NWS Bismarck, ND

Home | Current Version | Previous Version | Text Only | Print | Product List | Glossary Off
Versions: 1 2 3 4 5 6 7 8 9 10 11 12 13 14 15 16 17 18 19 20 21

180
FTUS43 KBIS 050736 AAA
TAFBIS
TAF AMD
KBIS 050736Z 0508/0606 24004KT P6SM -SN OVC050
     FM051000 31004KT 5SM -SN BR SCT009 OVC015
     FM051400 32006KT P6SM BKN040
     FM051800 31010KT P6SM SCT120
     FM060200 25004KT P6SM SCT250=

USA.gov is the U.S. government's official web portal to all federal, state and local government web resources and services.